createdAt,value
2023-03-16T00:00:05.408Z,3.20
2023-03-16T00:01:04.857Z,3.21
2023-03-16T00:02:05.039Z,3.20
2023-03-16T00:03:05.088Z,3.16
2023-03-16T00:04:04.808Z,3.16
2023-03-16T00:05:04.930Z,3.13
2023-03-16T00:06:05.381Z,3.15
2023-03-16T00:07:04.921Z,3.18
2023-03-16T00:08:04.705Z,3.15
2023-03-16T00:09:04.703Z,3.10
2023-03-16T00:10:04.911Z,3.09
2023-03-16T00:11:04.784Z,3.09
2023-03-16T00:12:04.843Z,3.09
2023-03-16T00:13:04.659Z,3.07
2023-03-16T00:14:04.991Z,3.09
2023-03-16T00:15:04.829Z,3.07
2023-03-16T00:16:04.947Z,3.10
2023-03-16T00:17:04.788Z,3.12
2023-03-16T00:18:05.210Z,3.09
2023-03-16T00:19:04.628Z,3.12
2023-03-16T00:20:04.625Z,3.16
2023-03-16T00:21:04.659Z,3.16
2023-03-16T00:22:04.644Z,3.20
2023-03-16T00:23:04.558Z,3.23
2023-03-16T00:24:04.721Z,3.28
2023-03-16T00:25:04.866Z,3.33
2023-03-16T00:26:04.725Z,3.34
2023-03-16T00:27:04.556Z,3.47
2023-03-16T00:28:04.676Z,3.50
2023-03-16T00:29:05.643Z,3.53
2023-03-16T00:30:04.541Z,3.52
2023-03-16T00:31:04.499Z,3.44
2023-03-16T00:32:04.644Z,3.39
2023-03-16T00:33:04.695Z,3.34
2023-03-16T00:34:04.477Z,3.28
2023-03-16T00:35:04.403Z,3.25
2023-03-16T00:36:04.560Z,3.20
2023-03-16T00:37:04.419Z,3.23
2023-03-16T00:38:04.719Z,3.23
2023-03-16T00:39:04.533Z,3.21
2023-03-16T00:40:04.409Z,3.21
2023-03-16T00:41:04.415Z,3.21
2023-03-16T00:42:04.382Z,3.20
2023-03-16T00:43:04.366Z,3.21
2023-03-16T00:44:04.464Z,3.31
2023-03-16T00:45:04.350Z,3.40
2023-03-16T00:46:04.385Z,3.47
2023-03-16T00:47:04.315Z,3.44
2023-03-16T00:48:04.340Z,3.44
2023-03-16T00:49:04.478Z,3.42
2023-03-16T00:50:04.417Z,3.39
2023-03-16T00:51:04.512Z,3.42
2023-03-16T00:52:04.487Z,3.49
2023-03-16T00:53:04.543Z,3.53
2023-03-16T00:54:04.570Z,3.54
2023-03-16T00:55:04.316Z,3.53
2023-03-16T00:56:04.528Z,3.53
2023-03-16T00:57:04.286Z,3.52
2023-03-16T00:58:04.445Z,3.47
2023-03-16T00:59:04.501Z,3.46
2023-03-16T01:00:04.209Z,3.46
2023-03-16T01:01:04.415Z,3.43
2023-03-16T01:02:04.257Z,3.39
2023-03-16T01:03:04.315Z,3.33
2023-03-16T01:04:04.238Z,3.33
2023-03-16T01:05:04.137Z,3.39
2023-03-16T01:06:04.146Z,3.40
2023-03-16T01:07:04.227Z,3.40
2023-03-16T01:08:04.139Z,3.40
2023-03-16T01:09:04.179Z,3.49
2023-03-16T01:10:04.203Z,3.52
2023-03-16T01:11:04.271Z,3.53
2023-03-16T01:12:04.526Z,3.50
2023-03-16T01:13:04.106Z,3.50
2023-03-16T01:14:04.097Z,3.54
2023-03-16T01:15:04.981Z,3.53
2023-03-16T01:16:04.079Z,3.61
2023-03-16T01:17:04.416Z,3.64
2023-03-16T01:18:04.277Z,3.68
2023-03-16T01:19:04.192Z,3.67
2023-03-16T01:20:04.174Z,3.67
2023-03-16T01:21:04.695Z,3.68
2023-03-16T01:22:04.438Z,3.68
2023-03-16T01:23:03.997Z,3.71
2023-03-16T01:24:03.968Z,3.70
2023-03-16T01:25:03.945Z,3.70
2023-03-16T01:26:03.962Z,3.71
2023-03-16T01:27:03.957Z,3.71
2023-03-16T01:28:04.284Z,3.78
2023-03-16T01:29:03.938Z,3.76
2023-03-16T01:30:03.934Z,3.78
2023-03-16T01:31:04.141Z,3.75
2023-03-16T01:32:03.912Z,3.72
2023-03-16T01:33:03.976Z,3.75
2023-03-16T01:34:03.966Z,3.75
2023-03-16T01:35:03.918Z,3.71
2023-03-16T01:36:03.967Z,3.71
2023-03-16T01:37:04.034Z,3.76
2023-03-16T01:38:03.949Z,3.78
2023-03-16T01:39:03.912Z,3.79
2023-03-16T01:40:04.030Z,3.75
2023-03-16T01:41:03.855Z,3.76
2023-03-16T01:42:03.778Z,3.76
2023-03-16T01:43:03.913Z,3.78
2023-03-16T01:44:03.868Z,3.78
2023-03-16T01:45:04.010Z,3.71
2023-03-16T01:46:03.854Z,3.67
2023-03-16T01:47:03.925Z,3.67
2023-03-16T01:48:03.907Z,3.67
2023-03-16T01:49:03.949Z,3.70
2023-03-16T01:50:03.747Z,3.67
2023-03-16T01:51:06.202Z,3.68
2023-03-16T01:52:03.912Z,3.70
2023-03-16T01:53:03.866Z,3.67
2023-03-16T01:54:03.724Z,3.67
2023-03-16T01:55:04.019Z,3.65
2023-03-16T01:56:03.668Z,3.72
2023-03-16T01:57:04.022Z,3.78
2023-03-16T01:58:03.674Z,3.78
2023-03-16T01:59:03.676Z,3.82
2023-03-16T02:00:03.713Z,3.86
2023-03-16T02:01:03.700Z,3.94
2023-03-16T02:02:03.660Z,3.94
2023-03-16T02:03:03.620Z,3.90
2023-03-16T02:04:03.762Z,3.86
2023-03-16T02:05:03.778Z,3.85
2023-03-16T02:06:03.556Z,3.83
2023-03-16T02:07:03.598Z,3.83
2023-03-16T02:08:03.616Z,3.82
2023-03-16T02:09:03.535Z,3.82
2023-03-16T02:10:04.028Z,3.83
2023-03-16T02:11:03.516Z,3.83
2023-03-16T02:12:03.500Z,3.85
2023-03-16T02:13:03.579Z,3.83
2023-03-16T02:14:03.473Z,3.83
2023-03-16T02:15:03.635Z,3.85
2023-03-16T02:16:03.673Z,3.94
2023-03-16T02:17:03.592Z,3.94
2023-03-16T02:18:03.465Z,3.96
2023-03-16T02:19:03.674Z,3.94
2023-03-16T02:20:03.546Z,3.92
2023-03-16T02:21:03.463Z,3.89
2023-03-16T02:22:03.462Z,3.86
2023-03-16T02:23:03.649Z,3.82
2023-03-16T02:24:03.429Z,3.79
2023-03-16T02:25:03.446Z,3.78
2023-03-16T02:26:03.581Z,3.76
2023-03-16T02:27:03.698Z,3.86
2023-03-16T02:28:03.713Z,3.89
2023-03-16T02:29:03.327Z,3.89
2023-03-16T02:30:03.564Z,3.89
2023-03-16T02:31:03.506Z,3.88
2023-03-16T02:32:03.319Z,3.83
2023-03-16T02:33:03.398Z,3.83
2023-03-16T02:34:03.330Z,3.80
2023-03-16T02:35:03.283Z,3.82
2023-03-16T02:36:03.430Z,3.85
2023-03-16T02:37:03.466Z,3.89
2023-03-16T02:38:03.303Z,3.89
2023-03-16T02:39:03.625Z,3.96
2023-03-16T02:40:03.278Z,3.94
2023-03-16T02:41:03.209Z,3.96
2023-03-16T02:42:03.929Z,3.97
2023-03-16T02:43:03.187Z,3.96
2023-03-16T02:44:03.258Z,3.96
2023-03-16T02:45:03.394Z,3.96
2023-03-16T02:46:03.324Z,3.94
2023-03-16T02:47:03.212Z,3.90
2023-03-16T02:48:03.157Z,3.90
2023-03-16T02:49:03.296Z,3.92
2023-03-16T02:50:03.155Z,3.90
2023-03-16T02:51:03.272Z,3.89
2023-03-16T02:52:03.270Z,3.94
2023-03-16T02:53:03.207Z,3.96
2023-03-16T02:54:03.346Z,4.04
2023-03-16T02:55:03.605Z,4.08
2023-03-16T02:56:03.340Z,4.07
2023-03-16T02:57:03.099Z,4.08
2023-03-16T02:58:03.199Z,4.04
2023-03-16T02:59:03.054Z,4.01
2023-03-16T03:00:03.048Z,4.00
2023-03-16T03:01:03.052Z,4.01
2023-03-16T03:02:03.017Z,3.98
2023-03-16T03:03:03.096Z,3.98
2023-03-16T03:04:03.033Z,3.98
2023-03-16T03:05:03.731Z,4.00
2023-03-16T03:06:03.080Z,4.00
2023-03-16T03:07:02.983Z,3.97
2023-03-16T03:08:03.046Z,3.96
2023-03-16T03:09:03.125Z,3.94
2023-03-16T03:10:03.223Z,3.92
2023-03-16T03:11:03.060Z,3.96
2023-03-16T03:12:02.950Z,4.00
2023-03-16T03:13:03.087Z,4.01
2023-03-16T03:14:03.014Z,4.01
2023-03-16T03:15:02.898Z,4.01
2023-03-16T03:16:03.004Z,4.06
2023-03-16T03:17:02.888Z,4.07
2023-03-16T03:18:02.964Z,4.12
2023-03-16T03:19:02.888Z,4.14
2023-03-16T03:20:02.933Z,4.14
2023-03-16T03:21:03.009Z,4.12
2023-03-16T03:22:02.901Z,4.12
2023-03-16T03:23:02.850Z,4.10
2023-03-16T03:24:02.944Z,4.12
2023-03-16T03:25:02.808Z,4.15
2023-03-16T03:26:02.965Z,4.18
2023-03-16T03:27:02.853Z,4.24
2023-03-16T03:28:02.954Z,4.24
2023-03-16T03:29:03.107Z,4.25
2023-03-16T03:30:02.869Z,4.26
2023-03-16T03:31:02.894Z,4.29
2023-03-16T03:32:02.837Z,4.32
2023-03-16T03:33:02.900Z,4.29
2023-03-16T03:34:03.783Z,4.32
2023-03-16T03:35:03.213Z,4.29
2023-03-16T03:36:02.796Z,4.29
2023-03-16T03:37:02.912Z,4.28
2023-03-16T03:38:02.727Z,4.26
2023-03-16T03:39:02.713Z,4.26
2023-03-16T03:40:02.694Z,4.26
2023-03-16T03:41:02.869Z,4.26
2023-03-16T03:42:02.644Z,4.28
2023-03-16T03:43:02.955Z,4.28
2023-03-16T03:44:02.738Z,4.29
2023-03-16T03:45:02.583Z,4.33
2023-03-16T03:46:02.773Z,4.36
2023-03-16T08:49:44.174Z,6.86
2023-03-16T08:50:45.182Z,6.86
2023-03-16T08:51:45.688Z,6.87
2023-03-16T08:52:45.118Z,6.87
2023-03-16T08:53:45.620Z,6.89
2023-03-16T08:55:01.501Z,6.90
2023-03-16T08:55:45.182Z,6.90
2023-03-16T08:56:45.280Z,6.90
2023-03-16T08:57:45.374Z,6.94
2023-03-16T08:58:45.302Z,6.98
2023-03-16T08:59:45.075Z,6.98
2023-03-16T09:00:47.083Z,6.87
2023-03-16T09:01:45.071Z,6.89
2023-03-16T09:02:45.058Z,6.89
2023-03-16T09:03:45.142Z,6.94
2023-03-16T09:04:45.181Z,6.97
2023-03-16T09:05:45.022Z,7.01
2023-03-16T09:06:45.642Z,7.07
2023-03-16T09:07:46.571Z,7.07
2023-03-16T09:08:44.941Z,7.09
2023-03-16T09:09:44.988Z,7.12
2023-03-16T09:10:44.954Z,7.13
2023-03-16T09:11:44.958Z,7.16
2023-03-16T09:12:44.942Z,7.19
2023-03-16T09:13:44.930Z,7.20
2023-03-16T09:14:44.914Z,7.24
2023-03-16T09:15:44.928Z,7.24
2023-03-16T09:16:45.016Z,7.26
2023-03-16T09:17:45.296Z,7.32
2023-03-16T09:18:44.889Z,7.40
2023-03-16T09:19:51.438Z,7.40
2023-03-16T09:20:44.862Z,7.44
2023-03-16T09:21:47.053Z,7.59
2023-03-16T09:22:44.822Z,7.79
2023-03-16T09:23:44.808Z,7.99
2023-03-16T09:24:44.790Z,8.20
2023-03-16T09:25:44.762Z,8.45
2023-03-16T09:26:44.791Z,8.65
2023-03-16T09:27:44.967Z,8.78
2023-03-16T09:28:44.746Z,8.90
2023-03-16T09:29:44.844Z,9.05
2023-03-16T09:30:44.972Z,9.06
2023-03-16T09:31:44.979Z,9.10
2023-03-16T09:32:44.967Z,9.20
2023-03-16T09:33:44.936Z,9.40
2023-03-16T09:34:44.811Z,9.53
2023-03-16T09:35:44.914Z,9.60
2023-03-16T09:36:44.846Z,9.70
2023-03-16T09:37:45.397Z,9.66
2023-03-16T09:38:44.921Z,9.45
2023-03-16T09:39:44.670Z,9.23
2023-03-16T09:40:47.051Z,9.16
2023-03-16T09:41:44.651Z,9.05
2023-03-16T09:42:44.601Z,9.04
2023-03-16T09:43:44.632Z,9.09
2023-03-16T09:44:44.568Z,9.21
2023-03-16T09:45:44.606Z,9.39
2023-03-16T09:46:44.881Z,9.39
2023-03-16T09:47:44.700Z,9.49
2023-03-16T09:48:44.534Z,9.53
2023-03-16T09:49:44.622Z,9.64
2023-03-16T09:50:48.760Z,9.83
2023-03-16T09:51:45.126Z,10.00
2023-03-16T09:52:44.994Z,10.14
2023-03-16T09:53:45.977Z,10.12
2023-03-16T09:54:44.612Z,10.00
2023-03-16T09:55:44.490Z,9.86
2023-03-16T09:56:44.505Z,9.81
2023-03-16T09:57:44.565Z,9.56
2023-03-16T09:58:44.512Z,9.39
2023-03-16T09:59:44.612Z,9.38
2023-03-16T10:00:44.448Z,9.27
2023-03-16T10:01:44.446Z,9.24
2023-03-16T10:02:44.535Z,9.46
2023-03-16T10:03:44.490Z,9.73
2023-03-16T10:04:45.121Z,10.01
2023-03-16T10:05:44.838Z,10.15
2023-03-16T10:06:44.415Z,10.24
2023-03-16T10:07:44.402Z,10.36
2023-03-16T10:08:44.345Z,10.30
2023-03-16T10:09:44.391Z,10.28
2023-03-16T10:10:44.366Z,10.24
2023-03-16T10:11:44.345Z,10.10
2023-03-16T10:12:44.413Z,9.93
2023-03-16T10:13:44.289Z,9.76
2023-03-16T10:14:44.290Z,9.58
2023-03-16T10:15:44.332Z,9.45
2023-03-16T10:16:44.335Z,9.42
2023-03-16T10:17:44.247Z,9.49
2023-03-16T10:18:44.298Z,9.56
2023-03-16T10:19:44.249Z,9.63
2023-03-16T10:20:44.294Z,9.67
2023-03-16T10:21:44.288Z,9.64
2023-03-16T10:22:44.215Z,9.66
2023-03-16T10:23:44.212Z,9.73
2023-03-16T10:24:44.209Z,9.82
2023-03-16T10:25:44.418Z,9.68
2023-03-16T10:26:44.385Z,9.70
2023-03-16T10:27:44.342Z,9.67
2023-03-16T10:28:44.249Z,9.68
2023-03-16T10:29:44.239Z,9.67
2023-03-16T10:30:44.206Z,9.63
2023-03-16T10:31:44.411Z,9.43
2023-03-16T10:32:44.193Z,9.30
2023-03-16T10:33:44.369Z,9.24
2023-03-16T10:34:44.217Z,9.09
2023-03-16T10:35:44.279Z,9.06
2023-03-16T10:36:44.385Z,9.12
2023-03-16T10:37:44.068Z,9.21
2023-03-16T10:38:44.074Z,9.23
2023-03-16T10:39:44.172Z,9.21
2023-03-16T10:40:44.149Z,9.21
2023-03-16T10:41:44.080Z,9.21
2023-03-16T10:42:44.048Z,9.23
2023-03-16T10:43:43.986Z,9.25
2023-03-16T10:44:44.013Z,9.23
2023-03-16T10:45:44.131Z,9.24
2023-03-16T10:46:44.317Z,9.23
2023-03-16T10:47:44.180Z,9.24
2023-03-16T10:48:43.954Z,9.20
2023-03-16T10:49:44.147Z,9.25
2023-03-16T10:50:44.319Z,9.38
2023-03-16T10:51:44.066Z,9.52
2023-03-16T10:52:44.228Z,9.67
2023-03-16T10:53:43.949Z,9.75
2023-03-16T10:54:43.913Z,9.94
2023-03-16T10:55:43.907Z,10.21
2023-03-16T10:56:43.875Z,10.43
2023-03-16T10:57:44.429Z,10.65
2023-03-16T10:58:43.967Z,10.84
2023-03-16T10:59:44.016Z,10.94
2023-03-16T11:00:44.362Z,11.06
2023-03-16T11:01:44.061Z,11.27
2023-03-16T11:02:44.083Z,11.43
2023-03-16T11:03:44.275Z,11.44
2023-03-16T11:04:43.913Z,11.21
2023-03-16T11:05:43.795Z,11.09
2023-03-16T11:06:43.928Z,11.16
2023-03-16T11:07:43.959Z,11.16
2023-03-16T11:08:44.065Z,11.17
2023-03-16T11:09:43.974Z,11.19
2023-03-16T11:10:55.165Z,11.19
2023-03-16T11:11:43.815Z,11.02
2023-03-16T11:12:44.048Z,11.10
2023-03-16T11:13:43.896Z,11.07
2023-03-16T11:14:43.708Z,11.09
2023-03-16T11:15:43.877Z,11.31
2023-03-16T11:16:43.735Z,11.41
2023-03-16T11:17:43.665Z,11.61
2023-03-16T11:18:43.888Z,12.09
2023-03-16T11:19:43.780Z,12.48
2023-03-16T11:20:43.685Z,12.63
2023-03-16T11:21:43.823Z,13.02
2023-03-16T11:22:43.969Z,13.47
2023-03-16T11:23:43.811Z,13.95
2023-03-16T11:24:43.583Z,13.91
2023-03-16T11:25:43.629Z,14.13
2023-03-16T11:26:43.937Z,14.35
2023-03-16T11:27:43.641Z,14.46
2023-03-16T11:28:43.552Z,14.37
2023-03-16T11:29:43.822Z,14.99
2023-03-16T11:30:43.569Z,15.30
2023-03-16T11:31:43.684Z,15.51
2023-03-16T11:32:43.690Z,15.94
2023-03-16T11:33:43.524Z,16.35
2023-03-16T11:34:43.511Z,16.63
2023-03-16T11:35:56.336Z,16.67
2023-03-16T11:36:43.508Z,16.83
2023-03-16T11:37:43.518Z,16.65
2023-03-16T11:38:43.469Z,16.90
2023-03-16T11:39:43.500Z,17.44
2023-03-16T11:40:43.462Z,17.64
2023-03-16T11:41:43.434Z,17.62
2023-03-16T11:42:43.440Z,17.85
2023-03-16T11:43:43.407Z,17.59
2023-03-16T11:44:43.542Z,17.78
2023-03-16T11:45:43.502Z,18.34
2023-03-16T11:46:43.396Z,18.65
2023-03-16T11:47:43.456Z,18.97
2023-03-16T11:48:43.430Z,19.28
2023-03-16T11:49:43.507Z,20.00
2023-03-16T11:50:43.559Z,20.00
2023-03-16T11:51:43.467Z,19.57
2023-03-16T11:52:43.395Z,18.80
2023-03-16T11:53:43.408Z,18.17
2023-03-16T11:54:43.293Z,18.37
2023-03-16T11:55:43.271Z,18.65
2023-03-16T11:56:43.335Z,18.90
2023-03-16T11:57:43.268Z,18.98
2023-03-16T11:58:43.248Z,19.29
2023-03-16T11:59:48.955Z,18.74
2023-03-16T12:00:43.304Z,18.99
2023-03-16T12:01:57.899Z,19.38
2023-03-16T12:02:43.371Z,20.00
2023-03-16T12:03:43.650Z,20.68
2023-03-16T12:04:43.201Z,21.01
2023-03-16T12:05:44.942Z,21.26
2023-03-16T12:06:43.275Z,20.31
2023-03-16T12:07:43.145Z,19.90
2023-03-16T12:08:43.268Z,20.00
2023-03-16T12:09:43.181Z,20.03
2023-03-16T12:10:43.095Z,19.65
2023-03-16T12:11:43.418Z,19.15
2023-03-16T12:12:43.084Z,18.86
2023-03-16T12:13:43.072Z,18.43
2023-03-16T12:14:43.057Z,18.34
2023-03-16T12:15:43.217Z,17.87
2023-03-16T12:16:49.580Z,17.33
2023-03-16T12:17:43.143Z,16.83
2023-03-16T12:18:43.204Z,16.31
2023-03-16T12:19:43.086Z,16.09
2023-03-16T12:20:43.205Z,15.94
2023-03-16T12:21:43.298Z,15.81
2023-03-16T12:22:42.992Z,15.20
2023-03-16T12:23:42.984Z,14.80
2023-03-16T12:24:42.975Z,14.35
2023-03-16T12:25:43.281Z,13.73
2023-03-16T12:26:42.980Z,13.59
2023-03-16T12:27:42.996Z,13.36
2023-03-16T12:28:43.037Z,13.12
2023-03-16T12:29:43.096Z,13.11
2023-03-16T12:30:43.027Z,13.11
2023-03-16T12:31:43.288Z,12.89
2023-03-16T12:32:43.106Z,12.87
2023-03-16T12:33:42.933Z,12.89
2023-03-16T12:34:43.019Z,12.84
2023-03-16T12:35:43.415Z,12.71
2023-03-16T12:36:42.957Z,12.60
2023-03-16T12:37:43.018Z,12.52
2023-03-16T12:38:42.906Z,12.33
2023-03-16T12:39:43.173Z,12.42
2023-03-16T12:40:42.907Z,12.41
2023-03-16T12:41:42.841Z,12.31
2023-03-16T12:42:42.842Z,12.26
2023-03-16T12:43:42.834Z,12.31
2023-03-16T12:44:42.920Z,12.42
2023-03-16T12:45:42.856Z,12.59
2023-03-16T12:46:42.757Z,12.78
2023-03-16T12:47:42.735Z,12.84
2023-03-16T12:48:42.732Z,12.89
2023-03-16T12:49:42.742Z,12.97
2023-03-16T12:50:42.743Z,13.09
2023-03-16T12:51:42.745Z,13.24
2023-03-16T12:52:42.746Z,13.22
2023-03-16T12:53:42.682Z,13.25
2023-03-16T12:54:42.879Z,13.30
2023-03-16T12:55:42.677Z,13.37
2023-03-16T12:56:42.734Z,13.27
2023-03-16T12:57:42.831Z,13.06
2023-03-16T12:58:42.641Z,13.00
2023-03-16T12:59:42.894Z,12.82
2023-03-16T13:00:43.088Z,12.70
2023-03-16T13:01:42.604Z,12.67
2023-03-16T13:02:42.718Z,12.71
2023-03-16T13:03:42.989Z,12.67
2023-03-16T13:04:43.021Z,12.85
2023-03-16T13:05:42.612Z,12.88
2023-03-16T13:06:42.712Z,13.02
2023-03-16T13:07:42.683Z,13.04
2023-03-16T13:08:42.563Z,13.20
2023-03-16T13:09:42.556Z,13.30
2023-03-16T13:10:42.888Z,13.44
2023-03-16T13:11:42.491Z,13.51
2023-03-16T13:12:42.477Z,13.61
2023-03-16T13:13:42.487Z,13.73
2023-03-16T13:14:42.507Z,13.76
2023-03-16T13:15:42.492Z,13.70
2023-03-16T13:16:42.618Z,14.01
2023-03-16T13:17:42.799Z,14.10
2023-03-16T13:18:42.444Z,14.29
2023-03-16T13:19:42.450Z,14.62
2023-03-16T13:20:42.558Z,14.81
2023-03-16T13:21:42.795Z,15.24
2023-03-16T13:22:42.455Z,15.89
2023-03-16T13:23:42.386Z,16.41
2023-03-16T13:24:42.368Z,16.40
2023-03-16T13:25:42.553Z,16.25
2023-03-16T13:26:42.373Z,16.27
2023-03-16T13:27:42.609Z,16.27
2023-03-16T13:28:42.617Z,16.45
2023-03-16T13:29:42.556Z,16.73
2023-03-16T13:30:42.425Z,16.78
2023-03-16T13:31:42.523Z,17.28
2023-03-16T13:32:42.615Z,18.21
2023-03-16T13:33:42.337Z,18.37
2023-03-16T13:34:42.452Z,17.85
2023-03-16T13:35:42.289Z,16.73
2023-03-16T13:36:42.444Z,16.30
2023-03-16T13:37:42.324Z,16.62
2023-03-16T13:38:42.330Z,17.43
2023-03-16T13:39:42.405Z,17.95
2023-03-16T13:40:42.232Z,18.25
2023-03-16T13:41:43.448Z,18.58
2023-03-16T13:42:42.308Z,18.61
2023-03-16T13:43:42.206Z,18.55
2023-03-16T13:44:42.292Z,18.97
2023-03-16T13:45:42.460Z,19.21
2023-03-16T13:46:42.132Z,19.43
2023-03-16T13:47:42.170Z,19.31
2023-03-16T13:48:42.231Z,19.53
2023-03-16T13:49:42.134Z,19.98
2023-03-16T13:50:42.418Z,19.98
2023-03-16T13:51:42.217Z,19.28
2023-03-16T13:52:42.106Z,18.74
2023-03-16T13:53:42.099Z,18.31
2023-03-16T13:54:42.275Z,17.48
2023-03-16T13:55:42.097Z,17.10
2023-03-16T13:56:42.361Z,16.83
2023-03-16T13:57:42.246Z,16.56
2023-03-16T13:58:42.198Z,16.68
2023-03-16T13:59:42.027Z,16.75
2023-03-16T14:00:42.036Z,17.03
2023-03-16T14:01:42.085Z,17.22
2023-03-16T14:02:42.068Z,17.07
2023-03-16T14:03:42.062Z,16.89
2023-03-16T14:04:43.459Z,16.67
2023-03-16T14:05:41.952Z,16.40
2023-03-16T14:06:41.947Z,16.22
2023-03-16T14:07:41.959Z,15.99
2023-03-16T14:08:41.985Z,16.00
2023-03-16T14:09:41.941Z,15.61
2023-03-16T14:10:42.011Z,15.46
2023-03-16T14:11:41.884Z,15.74
2023-03-16T14:12:42.331Z,15.86
2023-03-16T14:13:41.885Z,16.09
2023-03-16T14:14:41.977Z,16.26
2023-03-16T14:15:41.959Z,16.34
2023-03-16T14:16:41.972Z,16.63
2023-03-16T14:17:41.865Z,16.58
2023-03-16T14:18:41.946Z,16.35
2023-03-16T14:19:41.837Z,16.04
2023-03-16T14:20:41.911Z,15.92
2023-03-16T14:21:41.920Z,15.94
2023-03-16T14:22:41.849Z,15.94
2023-03-16T14:23:41.836Z,15.92
2023-03-16T14:24:41.745Z,15.68
2023-03-16T14:25:41.785Z,15.76
2023-03-16T14:26:41.810Z,15.84
2023-03-16T14:27:41.966Z,15.89
2023-03-16T14:28:41.741Z,15.59
2023-03-16T14:29:41.752Z,15.41
2023-03-16T14:30:41.727Z,15.05
2023-03-16T14:31:41.861Z,14.90
2023-03-16T14:32:41.709Z,14.78
2023-03-16T14:33:41.764Z,14.65
2023-03-16T14:34:41.803Z,14.60
2023-03-16T14:35:41.843Z,14.61
2023-03-16T14:36:41.856Z,14.54
2023-03-16T14:37:41.639Z,14.54
2023-03-16T14:38:41.634Z,14.53
2023-03-16T14:39:41.881Z,14.43
2023-03-16T14:40:41.608Z,14.25
2023-03-16T14:41:41.613Z,14.16
2023-03-16T14:42:41.613Z,14.12
2023-03-16T14:43:41.610Z,13.98
2023-03-16T14:44:42.026Z,13.94
2023-03-16T14:45:41.601Z,13.79
2023-03-16T14:46:41.810Z,13.69
2023-03-16T14:47:41.609Z,13.71
2023-03-16T14:48:41.603Z,13.74
2023-03-16T14:49:43.382Z,13.77
2023-03-16T14:50:41.616Z,13.77
2023-03-16T14:51:41.564Z,13.76
2023-03-16T14:52:41.773Z,13.73
2023-03-16T14:53:41.959Z,13.79
2023-03-16T14:54:42.065Z,13.74
2023-03-16T14:55:41.499Z,13.58
2023-03-16T14:56:41.477Z,13.49
2023-03-16T14:57:41.472Z,13.51
2023-03-16T14:58:41.439Z,13.56
2023-03-16T14:59:41.629Z,13.56
2023-03-16T15:00:52.318Z,13.59
2023-03-16T15:01:41.580Z,13.59
2023-03-16T15:02:41.504Z,13.47
2023-03-16T15:03:41.749Z,13.40
2023-03-16T15:04:41.615Z,13.38
2023-03-16T15:05:41.428Z,13.32
2023-03-16T15:06:41.622Z,13.32
2023-03-16T15:07:41.341Z,13.30
2023-03-16T15:08:41.328Z,13.30
2023-03-16T15:09:41.992Z,13.25
2023-03-16T15:10:41.322Z,13.30
2023-03-16T15:11:41.319Z,13.21
2023-03-16T15:12:41.282Z,13.21
2023-03-16T15:13:41.317Z,13.21
2023-03-16T15:14:41.265Z,13.24
2023-03-16T15:15:41.873Z,13.29
2023-03-16T15:16:41.242Z,13.22
2023-03-16T15:17:41.231Z,13.15
2023-03-16T15:18:41.250Z,13.12
2023-03-16T15:19:41.374Z,13.11
2023-03-16T15:20:41.209Z,13.12
2023-03-16T15:21:41.213Z,13.12
2023-03-16T15:22:41.203Z,13.12
2023-03-16T15:23:41.202Z,13.14
2023-03-16T15:24:41.640Z,13.18
2023-03-16T15:25:41.304Z,13.20
2023-03-16T15:26:41.161Z,13.21
2023-03-16T15:27:41.391Z,13.21
2023-03-16T15:28:41.572Z,13.21
2023-03-16T15:29:41.188Z,13.21
2023-03-16T15:30:41.191Z,13.15
2023-03-16T15:31:41.166Z,13.12
2023-03-16T15:32:41.135Z,13.09
2023-03-16T15:33:41.129Z,13.11
2023-03-16T15:34:41.332Z,13.09
2023-03-16T15:35:41.252Z,13.09
2023-03-16T15:36:41.493Z,13.06
2023-03-16T15:37:41.053Z,13.06
2023-03-16T15:38:41.050Z,13.03
2023-03-16T15:39:41.051Z,13.03
2023-03-16T15:40:41.174Z,13.03
2023-03-16T15:41:47.476Z,13.02
2023-03-16T15:42:41.169Z,12.99
2023-03-16T15:43:41.169Z,12.97
2023-03-16T15:44:41.257Z,12.89
2023-03-16T15:45:41.064Z,12.85
2023-03-16T15:46:41.037Z,12.82
2023-03-16T15:47:41.041Z,12.75
2023-03-16T15:48:41.007Z,12.70
2023-03-16T15:49:47.781Z,12.67
2023-03-16T15:50:40.965Z,12.64
2023-03-16T15:51:41.034Z,12.62
2023-03-16T15:52:40.990Z,12.60
2023-03-16T15:53:41.056Z,12.56
2023-03-16T15:54:41.171Z,12.54
2023-03-16T15:55:41.041Z,12.52
2023-03-16T15:56:53.254Z,12.49
2023-03-16T15:57:41.024Z,12.45
2023-03-16T15:58:41.000Z,12.44
2023-03-16T15:59:40.943Z,12.41
2023-03-16T16:00:40.953Z,12.42
2023-03-16T16:01:40.896Z,12.42
2023-03-16T16:02:41.282Z,12.42
2023-03-16T16:03:40.905Z,12.42
2023-03-16T16:04:40.907Z,12.41
2023-03-16T16:05:40.737Z,12.38
2023-03-16T16:06:40.807Z,12.38
2023-03-16T16:07:40.730Z,12.34
2023-03-16T16:08:40.915Z,12.34
2023-03-16T16:09:40.877Z,12.33
2023-03-16T16:10:40.974Z,12.31
2023-03-16T16:11:41.285Z,12.27
2023-03-16T16:12:40.881Z,12.29
2023-03-16T16:13:44.653Z,12.24
2023-03-16T16:14:40.870Z,12.20
2023-03-16T16:15:40.719Z,12.19
2023-03-16T16:16:40.745Z,12.20
2023-03-16T16:17:53.883Z,12.20
2023-03-16T16:18:40.882Z,12.19
2023-03-16T16:19:41.056Z,12.13
2023-03-16T16:20:40.748Z,12.13
2023-03-16T16:21:40.615Z,12.09
2023-03-16T16:22:40.584Z,12.06
2023-03-16T16:23:40.562Z,12.04
2023-03-16T16:24:40.812Z,12.02
2023-03-16T16:25:40.553Z,12.02
2023-03-16T16:26:50.549Z,11.99
2023-03-16T16:27:40.550Z,11.97
2023-03-16T16:28:40.514Z,11.94
2023-03-16T16:29:40.766Z,11.90
2023-03-16T16:30:40.708Z,11.85
2023-03-16T16:31:40.904Z,11.83
2023-03-16T16:32:40.879Z,11.80
2023-03-16T16:33:40.529Z,11.77
2023-03-16T16:34:40.676Z,11.74
2023-03-16T16:35:40.574Z,11.72
2023-03-16T16:36:40.452Z,11.70
2023-03-16T16:37:40.489Z,11.62
2023-03-16T16:38:40.441Z,11.57
2023-03-16T16:39:40.678Z,11.50
2023-03-16T16:40:40.552Z,11.50
2023-03-16T16:41:40.522Z,11.49
2023-03-16T16:42:40.500Z,11.46
2023-03-16T16:43:40.386Z,11.39
2023-03-16T16:44:40.593Z,11.38
2023-03-16T16:45:40.568Z,11.35
2023-03-16T16:46:40.384Z,11.29
2023-03-16T16:47:40.344Z,11.27
2023-03-16T16:48:40.352Z,11.21
2023-03-16T16:49:40.332Z,11.27
2023-03-16T16:50:40.333Z,11.27
2023-03-16T16:51:40.530Z,11.21
2023-03-16T16:52:40.355Z,11.17
2023-03-16T16:53:40.266Z,11.14
2023-03-16T16:54:40.253Z,11.14
2023-03-16T16:55:42.322Z,11.14
2023-03-16T16:56:40.237Z,11.14
2023-03-16T16:57:40.212Z,11.10
2023-03-16T16:58:40.216Z,11.06
2023-03-16T16:59:40.288Z,11.02
2023-03-16T17:00:40.431Z,10.95
2023-03-16T17:01:40.367Z,10.81
2023-03-16T17:02:42.096Z,10.81
2023-03-16T17:03:40.145Z,10.78
2023-03-16T17:04:40.592Z,10.77
2023-03-16T17:05:40.191Z,10.73
2023-03-16T17:06:40.219Z,10.65
2023-03-16T17:07:40.247Z,10.60
2023-03-16T17:08:40.190Z,10.62
2023-03-16T17:09:40.136Z,10.56
2023-03-16T17:10:40.683Z,10.53
2023-03-16T17:11:40.723Z,10.47
2023-03-16T17:12:40.301Z,10.46
2023-03-16T17:13:40.117Z,10.53
2023-03-16T17:14:40.040Z,10.63
2023-03-16T17:15:40.085Z,10.65
2023-03-16T17:16:40.272Z,10.63
2023-03-16T17:17:40.052Z,10.60
2023-03-16T17:18:40.295Z,10.55
2023-03-16T17:19:40.072Z,10.51
2023-03-16T17:20:40.154Z,10.44
2023-03-16T17:21:40.156Z,10.44
2023-03-16T17:22:40.152Z,10.39
2023-03-16T17:23:40.213Z,10.33
2023-03-16T17:24:40.274Z,10.30
2023-03-16T17:25:40.049Z,10.28
2023-03-16T17:26:40.287Z,10.26
2023-03-16T17:27:40.113Z,10.24
2023-03-16T17:28:39.949Z,10.21
2023-03-16T17:29:40.125Z,10.18
2023-03-16T17:30:40.011Z,10.17
2023-03-16T17:31:40.095Z,10.17
2023-03-16T17:32:40.116Z,10.15
2023-03-16T17:33:40.032Z,10.12
2023-03-16T17:34:39.892Z,10.10
2023-03-16T17:35:40.116Z,10.12
2023-03-16T17:36:39.929Z,10.10
2023-03-16T17:37:40.059Z,10.10
2023-03-16T17:38:40.083Z,10.14
2023-03-16T17:39:40.030Z,10.14
2023-03-16T17:40:39.893Z,10.15
2023-03-16T17:41:39.964Z,10.24
2023-03-16T17:42:39.881Z,10.25
2023-03-16T17:43:39.785Z,10.26
2023-03-16T17:44:39.751Z,10.22
2023-03-16T17:45:39.927Z,10.18
2023-03-16T17:46:39.779Z,10.12
2023-03-16T17:47:39.800Z,10.09
2023-03-16T17:48:39.767Z,10.03
2023-03-16T17:49:39.730Z,10.00
2023-03-16T17:50:39.832Z,9.94
2023-03-16T17:51:40.501Z,9.93
2023-03-16T17:52:39.669Z,9.94
2023-03-16T17:53:39.817Z,9.94
2023-03-16T17:54:39.674Z,9.93
2023-03-16T17:55:39.877Z,9.93
2023-03-16T17:56:39.803Z,9.89
2023-03-16T17:57:39.632Z,9.88
2023-03-16T17:58:39.788Z,9.86
2023-03-16T17:59:39.662Z,9.86
2023-03-16T18:00:39.618Z,9.94
2023-03-16T18:01:39.654Z,9.96
2023-03-16T18:02:39.571Z,9.91
2023-03-16T18:03:39.692Z,9.86
2023-03-16T18:04:39.664Z,9.82
2023-03-16T18:05:39.577Z,9.81
2023-03-16T18:06:39.637Z,9.85